sensor_id;sensor_type;location;lat;lon;timestamp;P1;durP1;ratioP1;P2;durP2;ratioP2
46897;SDS011;32646;50.958;6.258;2022-12-18T00:01:34;0.50;;;0.50;;
46897;SDS011;32646;50.958;6.258;2022-12-18T00:04:03;0.30;;;0.30;;
46897;SDS011;32646;50.958;6.258;2022-12-18T00:06:33;0.30;;;0.30;;
46897;SDS011;32646;50.958;6.258;2022-12-18T00:09:01;0.40;;;0.40;;
46897;SDS011;32646;50.958;6.258;2022-12-18T00:11:29;0.40;;;0.40;;
46897;SDS011;32646;50.958;6.258;2022-12-18T00:13:57;0.40;;;0.40;;
46897;SDS011;32646;50.958;6.258;2022-12-18T00:16:25;0.30;;;0.30;;
46897;SDS011;32646;50.958;6.258;2022-12-18T00:18:54;0.40;;;0.40;;
46897;SDS011;32646;50.958;6.258;2022-12-18T00:21:22;0.40;;;0.40;;
46897;SDS011;32646;50.958;6.258;2022-12-18T00:23:49;0.40;;;0.40;;
46897;SDS011;32646;50.958;6.258;2022-12-18T00:26:17;0.50;;;0.50;;
46897;SDS011;32646;50.958;6.258;2022-12-18T00:28:46;0.30;;;0.30;;
46897;SDS011;32646;50.958;6.258;2022-12-18T00:31:15;0.43;;;0.43;;
46897;SDS011;32646;50.958;6.258;2022-12-18T00:33:43;0.32;;;0.32;;
46897;SDS011;32646;50.958;6.258;2022-12-18T00:36:11;0.40;;;0.40;;
46897;SDS011;32646;50.958;6.258;2022-12-18T00:38:42;0.40;;;0.40;;
46897;SDS011;32646;50.958;6.258;2022-12-18T00:41:10;0.40;;;0.40;;
46897;SDS011;32646;50.958;6.258;2022-12-18T00:43:38;0.40;;;0.40;;
46897;SDS011;32646;50.958;6.258;2022-12-18T00:46:06;0.40;;;0.40;;
46897;SDS011;32646;50.958;6.258;2022-12-18T00:48:33;0.30;;;0.30;;
46897;SDS011;32646;50.958;6.258;2022-12-18T00:50:59;0.40;;;0.40;;
46897;SDS011;32646;50.958;6.258;2022-12-18T00:53:26;0.40;;;0.40;;
46897;SDS011;32646;50.958;6.258;2022-12-18T00:55:52;0.40;;;0.40;;
46897;SDS011;32646;50.958;6.258;2022-12-18T00:58:35;0.40;;;0.40;;
46897;SDS011;32646;50.958;6.258;2022-12-18T01:01:03;0.50;;;0.50;;
46897;SDS011;32646;50.958;6.258;2022-12-18T01:03:30;0.37;;;0.37;;
46897;SDS011;32646;50.958;6.258;2022-12-18T01:05:57;0.50;;;0.50;;
46897;SDS011;32646;50.958;6.258;2022-12-18T01:08:24;0.40;;;0.40;;
46897;SDS011;32646;50.958;6.258;2022-12-18T01:10:50;0.40;;;0.40;;
46897;SDS011;32646;50.958;6.258;2022-12-18T01:13:17;0.40;;;0.40;;
46897;SDS011;32646;50.958;6.258;2022-12-18T01:15:50;0.40;;;0.40;;
46897;SDS011;32646;50.958;6.258;2022-12-18T01:18:17;0.40;;;0.40;;
46897;SDS011;32646;50.958;6.258;2022-12-18T01:20:43;0.40;;;0.40;;
46897;SDS011;32646;50.958;6.258;2022-12-18T01:23:10;0.40;;;0.40;;
46897;SDS011;32646;50.958;6.258;2022-12-18T01:25:36;0.50;;;0.50;;
46897;SDS011;32646;50.958;6.258;2022-12-18T01:28:04;0.30;;;0.30;;
46897;SDS011;32646;50.958;6.258;2022-12-18T01:30:30;0.40;;;0.40;;
46897;SDS011;32646;50.958;6.258;2022-12-18T01:32:57;0.50;;;0.50;;
46897;SDS011;32646;50.958;6.258;2022-12-18T01:35:23;0.50;;;0.50;;
46897;SDS011;32646;50.958;6.258;2022-12-18T01:37:53;0.40;;;0.40;;
46897;SDS011;32646;50.958;6.258;2022-12-18T01:40:21;0.30;;;0.30;;
46897;SDS011;32646;50.958;6.258;2022-12-18T01:42:56;0.40;;;0.40;;
46897;SDS011;32646;50.958;6.258;2022-12-18T01:45:27;0.40;;;0.40;;
46897;SDS011;32646;50.958;6.258;2022-12-18T01:47:56;0.40;;;0.40;;
46897;SDS011;32646;50.958;6.258;2022-12-18T01:55:42;0.30;;;0.30;;
46897;SDS011;32646;50.958;6.258;2022-12-18T01:58:12;0.40;;;0.40;;
46897;SDS011;32646;50.958;6.258;2022-12-18T02:00:39;0.30;;;0.30;;
46897;SDS011;32646;50.958;6.258;2022-12-18T02:03:06;0.37;;;0.37;;
46897;SDS011;32646;50.958;6.258;2022-12-18T02:05:41;0.30;;;0.30;;
46897;SDS011;32646;50.958;6.258;2022-12-18T02:08:21;0.40;;;0.40;;
46897;SDS011;32646;50.958;6.258;2022-12-18T02:11:07;0.30;;;0.30;;
46897;SDS011;32646;50.958;6.258;2022-12-18T02:14:07;0.40;;;0.40;;
46897;SDS011;32646;50.958;6.258;2022-12-18T02:22:00;0.40;;;0.40;;
46897;SDS011;32646;50.958;6.258;2022-12-18T02:25:00;0.40;;;0.40;;
46897;SDS011;32646;50.958;6.258;2022-12-18T02:27:42;0.33;;;0.33;;
46897;SDS011;32646;50.958;6.258;2022-12-18T02:30:11;0.47;;;0.47;;
46897;SDS011;32646;50.958;6.258;2022-12-18T02:32:40;0.40;;;0.40;;
46897;SDS011;32646;50.958;6.258;2022-12-18T02:35:15;0.40;;;0.40;;
46897;SDS011;32646;50.958;6.258;2022-12-18T02:37:44;0.40;;;0.40;;
46897;SDS011;32646;50.958;6.258;2022-12-18T02:40:12;0.40;;;0.40;;
46897;SDS011;32646;50.958;6.258;2022-12-18T02:42:41;0.40;;;0.40;;
46897;SDS011;32646;50.958;6.258;2022-12-18T02:45:08;0.40;;;0.40;;
46897;SDS011;32646;50.958;6.258;2022-12-18T02:47:38;0.40;;;0.40;;
46897;SDS011;32646;50.958;6.258;2022-12-18T02:55:42;0.40;;;0.40;;
46897;SDS011;32646;50.958;6.258;2022-12-18T03:04:16;0.40;;;0.40;;
46897;SDS011;32646;50.958;6.258;2022-12-18T03:06:49;0.40;;;0.40;;
46897;SDS011;32646;50.958;6.258;2022-12-18T03:09:23;0.33;;;0.33;;
46897;SDS011;32646;50.958;6.258;2022-12-18T03:11:56;0.30;;;0.30;;
46897;SDS011;32646;50.958;6.258;2022-12-18T03:14:28;0.40;;;0.40;;
46897;SDS011;32646;50.958;6.258;2022-12-18T03:17:02;0.30;;;0.30;;
46897;SDS011;32646;50.958;6.258;2022-12-18T03:19:32;0.40;;;0.40;;
46897;SDS011;32646;50.958;6.258;2022-12-18T03:22:00;0.30;;;0.30;;
46897;SDS011;32646;50.958;6.258;2022-12-18T03:24:29;0.40;;;0.40;;
46897;SDS011;32646;50.958;6.258;2022-12-18T03:27:02;0.40;;;0.40;;
46897;SDS011;32646;50.958;6.258;2022-12-18T03:29:45;0.40;;;0.40;;
46897;SDS011;32646;50.958;6.258;2022-12-18T03:32:19;0.40;;;0.40;;
46897;SDS011;32646;50.958;6.258;2022-12-18T03:34:58;0.30;;;0.30;;
46897;SDS011;32646;50.958;6.258;2022-12-18T03:39:55;0.40;;;0.40;;
46897;SDS011;32646;50.958;6.258;2022-12-18T03:42:29;0.40;;;0.40;;
46897;SDS011;32646;50.958;6.258;2022-12-18T03:50:10;0.40;;;0.40;;
46897;SDS011;32646;50.958;6.258;2022-12-18T03:53:09;0.40;;;0.40;;
46897;SDS011;32646;50.958;6.258;2022-12-18T03:55:54;0.37;;;0.37;;
46897;SDS011;32646;50.958;6.258;2022-12-18T03:58:23;0.40;;;0.40;;
46897;SDS011;32646;50.958;6.258;2022-12-18T04:00:52;0.30;;;0.30;;
46897;SDS011;32646;50.958;6.258;2022-12-18T04:03:20;0.40;;;0.40;;
46897;SDS011;32646;50.958;6.258;2022-12-18T04:05:52;0.30;;;0.30;;
46897;SDS011;32646;50.958;6.258;2022-12-18T04:08:21;0.40;;;0.40;;
46897;SDS011;32646;50.958;6.258;2022-12-18T04:10:49;0.40;;;0.40;;
46897;SDS011;32646;50.958;6.258;2022-12-18T04:13:23;0.40;;;0.40;;
46897;SDS011;32646;50.958;6.258;2022-12-18T04:15:51;0.40;;;0.40;;
46897;SDS011;32646;50.958;6.258;2022-12-18T04:18:17;0.43;;;0.43;;
46897;SDS011;32646;50.958;6.258;2022-12-18T04:20:44;0.37;;;0.37;;
46897;SDS011;32646;50.958;6.258;2022-12-18T04:23:11;0.40;;;0.40;;
46897;SDS011;32646;50.958;6.258;2022-12-18T04:25:37;0.40;;;0.40;;
46897;SDS011;32646;50.958;6.258;2022-12-18T04:28:04;0.40;;;0.40;;
46897;SDS011;32646;50.958;6.258;2022-12-18T04:30:30;0.40;;;0.40;;
46897;SDS011;32646;50.958;6.258;2022-12-18T04:32:57;0.40;;;0.40;;
46897;SDS011;32646;50.958;6.258;2022-12-18T04:35:23;0.30;;;0.30;;
46897;SDS011;32646;50.958;6.258;2022-12-18T04:37:50;0.30;;;0.30;;
46897;SDS011;32646;50.958;6.258;2022-12-18T04:40:16;0.40;;;0.40;;
46897;SDS011;32646;50.958;6.258;2022-12-18T04:42:43;0.30;;;0.30;;
46897;SDS011;32646;50.958;6.258;2022-12-18T04:45:10;0.33;;;0.33;;
46897;SDS011;32646;50.958;6.258;2022-12-18T04:47:36;0.30;;;0.30;;
46897;SDS011;32646;50.958;6.258;2022-12-18T04:50:03;0.37;;;0.37;;
46897;SDS011;32646;50.958;6.258;2022-12-18T04:52:30;0.40;;;0.40;;
46897;SDS011;32646;50.958;6.258;2022-12-18T04:54:57;0.40;;;0.40;;
46897;SDS011;32646;50.958;6.258;2022-12-18T04:57:23;0.30;;;0.30;;
46897;SDS011;32646;50.958;6.258;2022-12-18T04:59:50;0.40;;;0.40;;
46897;SDS011;32646;50.958;6.258;2022-12-18T05:02:16;0.33;;;0.33;;
46897;SDS011;32646;50.958;6.258;2022-12-18T05:04:43;0.40;;;0.40;;
46897;SDS011;32646;50.958;6.258;2022-12-18T05:07:10;0.40;;;0.40;;
46897;SDS011;32646;50.958;6.258;2022-12-18T05:09:36;0.40;;;0.40;;
46897;SDS011;32646;50.958;6.258;2022-12-18T05:12:03;0.40;;;0.40;;
46897;SDS011;32646;50.958;6.258;2022-12-18T05:14:29;0.40;;;0.40;;
46897;SDS011;32646;50.958;6.258;2022-12-18T05:16:56;0.40;;;0.40;;
46897;SDS011;32646;50.958;6.258;2022-12-18T05:19:26;0.40;;;0.40;;
46897;SDS011;32646;50.958;6.258;2022-12-18T05:21:52;0.40;;;0.40;;
46897;SDS011;32646;50.958;6.258;2022-12-18T05:24:19;0.40;;;0.40;;
46897;SDS011;32646;50.958;6.258;2022-12-18T05:26:46;0.40;;;0.40;;
46897;SDS011;32646;50.958;6.258;2022-12-18T05:29:12;0.40;;;0.40;;
46897;SDS011;32646;50.958;6.258;2022-12-18T05:31:39;0.30;;;0.30;;
46897;SDS011;32646;50.958;6.258;2022-12-18T05:34:08;0.40;;;0.40;;
46897;SDS011;32646;50.958;6.258;2022-12-18T05:36:35;0.30;;;0.30;;
46897;SDS011;32646;50.958;6.258;2022-12-18T05:39:02;0.33;;;0.33;;
46897;SDS011;32646;50.958;6.258;2022-12-18T05:41:29;0.40;;;0.40;;
46897;SDS011;32646;50.958;6.258;2022-12-18T05:43:56;0.40;;;0.40;;
46897;SDS011;32646;50.958;6.258;2022-12-18T05:46:22;0.40;;;0.40;;
46897;SDS011;32646;50.958;6.258;2022-12-18T05:48:49;0.40;;;0.40;;
46897;SDS011;32646;50.958;6.258;2022-12-18T05:51:16;0.40;;;0.40;;
46897;SDS011;32646;50.958;6.258;2022-12-18T05:53:45;0.40;;;0.40;;
46897;SDS011;32646;50.958;6.258;2022-12-18T05:56:16;0.40;;;0.40;;
46897;SDS011;32646;50.958;6.258;2022-12-18T05:58:45;0.40;;;0.40;;
46897;SDS011;32646;50.958;6.258;2022-12-18T06:01:14;0.50;;;0.50;;
46897;SDS011;32646;50.958;6.258;2022-12-18T06:03:46;0.40;;;0.40;;
46897;SDS011;32646;50.958;6.258;2022-12-18T06:06:16;0.43;;;0.43;;
46897;SDS011;32646;50.958;6.258;2022-12-18T06:08:44;0.30;;;0.30;;
46897;SDS011;32646;50.958;6.258;2022-12-18T06:11:12;0.40;;;0.40;;
46897;SDS011;32646;50.958;6.258;2022-12-18T06:13:41;0.40;;;0.40;;
46897;SDS011;32646;50.958;6.258;2022-12-18T06:16:08;0.40;;;0.40;;
46897;SDS011;32646;50.958;6.258;2022-12-18T06:18:35;0.40;;;0.40;;
46897;SDS011;32646;50.958;6.258;2022-12-18T06:21:03;0.40;;;0.40;;
46897;SDS011;32646;50.958;6.258;2022-12-18T06:23:29;0.40;;;0.40;;
46897;SDS011;32646;50.958;6.258;2022-12-18T06:25:56;0.37;;;0.37;;
46897;SDS011;32646;50.958;6.258;2022-12-18T06:28:23;0.40;;;0.40;;
46897;SDS011;32646;50.958;6.258;2022-12-18T06:30:49;0.30;;;0.30;;
46897;SDS011;32646;50.958;6.258;2022-12-18T06:33:16;0.40;;;0.40;;
46897;SDS011;32646;50.958;6.258;2022-12-18T06:35:43;0.30;;;0.30;;
46897;SDS011;32646;50.958;6.258;2022-12-18T06:38:09;0.40;;;0.40;;
46897;SDS011;32646;50.958;6.258;2022-12-18T06:40:36;0.40;;;0.40;;
46897;SDS011;32646;50.958;6.258;2022-12-18T06:43:03;0.40;;;0.40;;
46897;SDS011;32646;50.958;6.258;2022-12-18T06:45:30;0.40;;;0.40;;
46897;SDS011;32646;50.958;6.258;2022-12-18T06:47:57;0.40;;;0.40;;
46897;SDS011;32646;50.958;6.258;2022-12-18T06:50:24;0.40;;;0.40;;
46897;SDS011;32646;50.958;6.258;2022-12-18T06:52:50;0.40;;;0.40;;
46897;SDS011;32646;50.958;6.258;2022-12-18T06:55:17;0.40;;;0.40;;
46897;SDS011;32646;50.958;6.258;2022-12-18T06:57:44;0.40;;;0.40;;
46897;SDS011;32646;50.958;6.258;2022-12-18T07:00:10;0.30;;;0.30;;
46897;SDS011;32646;50.958;6.258;2022-12-18T07:02:37;0.30;;;0.30;;
46897;SDS011;32646;50.958;6.258;2022-12-18T07:05:04;0.40;;;0.40;;
46897;SDS011;32646;50.958;6.258;2022-12-18T07:07:36;0.40;;;0.40;;
46897;SDS011;32646;50.958;6.258;2022-12-18T07:10:02;0.40;;;0.40;;
46897;SDS011;32646;50.958;6.258;2022-12-18T07:12:29;0.40;;;0.40;;
46897;SDS011;32646;50.958;6.258;2022-12-18T07:14:56;0.40;;;0.40;;
46897;SDS011;32646;50.958;6.258;2022-12-18T07:17:22;0.40;;;0.40;;
46897;SDS011;32646;50.958;6.258;2022-12-18T07:19:49;0.33;;;0.33;;
46897;SDS011;32646;50.958;6.258;2022-12-18T07:22:16;0.40;;;0.40;;
46897;SDS011;32646;50.958;6.258;2022-12-18T07:24:43;0.37;;;0.37;;
46897;SDS011;32646;50.958;6.258;2022-12-18T07:27:10;0.30;;;0.30;;
46897;SDS011;32646;50.958;6.258;2022-12-18T07:29:36;0.50;;;0.50;;
46897;SDS011;32646;50.958;6.258;2022-12-18T07:32:04;0.40;;;0.40;;
46897;SDS011;32646;50.958;6.258;2022-12-18T07:34:31;0.40;;;0.40;;
46897;SDS011;32646;50.958;6.258;2022-12-18T07:36:58;0.40;;;0.40;;
46897;SDS011;32646;50.958;6.258;2022-12-18T07:39:24;0.30;;;0.30;;
46897;SDS011;32646;50.958;6.258;2022-12-18T07:41:51;0.40;;;0.40;;
46897;SDS011;32646;50.958;6.258;2022-12-18T07:44:17;0.40;;;0.40;;
46897;SDS011;32646;50.958;6.258;2022-12-18T07:46:44;0.40;;;0.40;;
46897;SDS011;32646;50.958;6.258;2022-12-18T07:49:10;0.40;;;0.40;;
46897;SDS011;32646;50.958;6.258;2022-12-18T07:51:37;0.30;;;0.30;;
46897;SDS011;32646;50.958;6.258;2022-12-18T07:54:03;0.30;;;0.30;;
46897;SDS011;32646;50.958;6.258;2022-12-18T07:56:30;0.40;;;0.40;;
46897;SDS011;32646;50.958;6.258;2022-12-18T07:58:57;0.30;;;0.30;;
46897;SDS011;32646;50.958;6.258;2022-12-18T08:01:24;0.40;;;0.40;;
46897;SDS011;32646;50.958;6.258;2022-12-18T08:03:52;0.37;;;0.37;;
46897;SDS011;32646;50.958;6.258;2022-12-18T08:06:19;0.40;;;0.40;;
46897;SDS011;32646;50.958;6.258;2022-12-18T08:08:50;0.30;;;0.30;;
46897;SDS011;32646;50.958;6.258;2022-12-18T08:11:17;0.30;;;0.30;;
46897;SDS011;32646;50.958;6.258;2022-12-18T08:13:44;0.40;;;0.40;;
46897;SDS011;32646;50.958;6.258;2022-12-18T08:16:11;0.40;;;0.40;;
46897;SDS011;32646;50.958;6.258;2022-12-18T08:18:37;0.40;;;0.40;;
46897;SDS011;32646;50.958;6.258;2022-12-18T08:21:08;0.40;;;0.40;;
46897;SDS011;32646;50.958;6.258;2022-12-18T08:23:38;0.40;;;0.40;;
46897;SDS011;32646;50.958;6.258;2022-12-18T08:26:08;0.30;;;0.30;;
46897;SDS011;32646;50.958;6.258;2022-12-18T08:28:36;0.40;;;0.40;;
46897;SDS011;32646;50.958;6.258;2022-12-18T08:31:02;0.40;;;0.40;;
46897;SDS011;32646;50.958;6.258;2022-12-18T08:33:30;0.40;;;0.40;;
46897;SDS011;32646;50.958;6.258;2022-12-18T08:36:00;0.33;;;0.33;;
46897;SDS011;32646;50.958;6.258;2022-12-18T08:38:27;0.30;;;0.30;;
46897;SDS011;32646;50.958;6.258;2022-12-18T08:41:04;0.37;;;0.37;;
46897;SDS011;32646;50.958;6.258;2022-12-18T08:43:32;0.30;;;0.30;;
46897;SDS011;32646;50.958;6.258;2022-12-18T08:45:59;0.40;;;0.40;;
46897;SDS011;32646;50.958;6.258;2022-12-18T08:48:25;0.30;;;0.30;;
46897;SDS011;32646;50.958;6.258;2022-12-18T08:50:56;0.30;;;0.30;;
46897;SDS011;32646;50.958;6.258;2022-12-18T08:53:23;0.40;;;0.40;;
46897;SDS011;32646;50.958;6.258;2022-12-18T08:55:50;0.30;;;0.30;;
46897;SDS011;32646;50.958;6.258;2022-12-18T08:58:17;0.30;;;0.30;;
46897;SDS011;32646;50.958;6.258;2022-12-18T09:00:44;0.30;;;0.30;;
46897;SDS011;32646;50.958;6.258;2022-12-18T09:03:12;0.30;;;0.30;;
46897;SDS011;32646;50.958;6.258;2022-12-18T09:05:43;0.30;;;0.30;;
46897;SDS011;32646;50.958;6.258;2022-12-18T09:08:11;0.30;;;0.30;;
46897;SDS011;32646;50.958;6.258;2022-12-18T09:10:45;0.30;;;0.30;;
46897;SDS011;32646;50.958;6.258;2022-12-18T09:13:12;0.30;;;0.30;;
46897;SDS011;32646;50.958;6.258;2022-12-18T09:15:43;0.30;;;0.30;;
46897;SDS011;32646;50.958;6.258;2022-12-18T09:18:12;0.20;;;0.20;;
46897;SDS011;32646;50.958;6.258;2022-12-18T09:20:39;0.30;;;0.30;;
46897;SDS011;32646;50.958;6.258;2022-12-18T09:23:06;0.30;;;0.30;;
46897;SDS011;32646;50.958;6.258;2022-12-18T09:25:34;0.30;;;0.30;;
46897;SDS011;32646;50.958;6.258;2022-12-18T09:28:14;0.20;;;0.20;;
46897;SDS011;32646;50.958;6.258;2022-12-18T09:33:11;0.30;;;0.30;;
46897;SDS011;32646;50.958;6.258;2022-12-18T09:35:38;0.20;;;0.20;;
46897;SDS011;32646;50.958;6.258;2022-12-18T09:38:05;0.28;;;0.28;;
46897;SDS011;32646;50.958;6.258;2022-12-18T09:40:42;0.30;;;0.30;;
46897;SDS011;32646;50.958;6.258;2022-12-18T09:43:22;0.30;;;0.30;;
46897;SDS011;32646;50.958;6.258;2022-12-18T09:45:55;0.30;;;0.30;;
46897;SDS011;32646;50.958;6.258;2022-12-18T09:48:46;0.30;;;0.30;;
46897;SDS011;32646;50.958;6.258;2022-12-18T09:51:20;0.30;;;0.30;;
46897;SDS011;32646;50.958;6.258;2022-12-18T09:54:02;0.28;;;0.28;;
46897;SDS011;32646;50.958;6.258;2022-12-18T09:56:34;0.20;;;0.20;;
46897;SDS011;32646;50.958;6.258;2022-12-18T09:59:05;0.20;;;0.20;;
46897;SDS011;32646;50.958;6.258;2022-12-18T10:01:32;0.20;;;0.20;;
46897;SDS011;32646;50.958;6.258;2022-12-18T10:04:09;0.20;;;0.20;;
46897;SDS011;32646;50.958;6.258;2022-12-18T10:22:22;0.20;;;0.20;;
46897;SDS011;32646;50.958;6.258;2022-12-18T10:25:03;0.22;;;0.22;;
46897;SDS011;32646;50.958;6.258;2022-12-18T10:27:55;0.20;;;0.20;;
46897;SDS011;32646;50.958;6.258;2022-12-18T10:30:26;0.20;;;0.20;;
46897;SDS011;32646;50.958;6.258;2022-12-18T10:32:53;0.20;;;0.20;;
46897;SDS011;32646;50.958;6.258;2022-12-18T10:35:24;0.20;;;0.20;;
46897;SDS011;32646;50.958;6.258;2022-12-18T10:43:28;0.20;;;0.20;;
46897;SDS011;32646;50.958;6.258;2022-12-18T10:54:01;0.20;;;0.20;;
46897;SDS011;32646;50.958;6.258;2022-12-18T10:56:48;0.20;;;0.20;;
46897;SDS011;32646;50.958;6.258;2022-12-18T10:59:16;0.20;;;0.20;;
46897;SDS011;32646;50.958;6.258;2022-12-18T11:04:22;0.20;;;0.20;;
46897;SDS011;32646;50.958;6.258;2022-12-18T11:07:03;0.20;;;0.20;;
46897;SDS011;32646;50.958;6.258;2022-12-18T11:09:33;0.22;;;0.22;;
46897;SDS011;32646;50.958;6.258;2022-12-18T11:12:08;0.20;;;0.20;;
46897;SDS011;32646;50.958;6.258;2022-12-18T11:14:43;0.20;;;0.20;;
46897;SDS011;32646;50.958;6.258;2022-12-18T11:17:20;0.20;;;0.20;;
46897;SDS011;32646;50.958;6.258;2022-12-18T11:20:04;0.20;;;0.20;;
46897;SDS011;32646;50.958;6.258;2022-12-18T11:22:45;0.20;;;0.20;;
46897;SDS011;32646;50.958;6.258;2022-12-18T11:25:29;0.20;;;0.20;;
46897;SDS011;32646;50.958;6.258;2022-12-18T11:28:01;0.20;;;0.20;;
46897;SDS011;32646;50.958;6.258;2022-12-18T11:30:33;0.20;;;0.20;;
46897;SDS011;32646;50.958;6.258;2022-12-18T11:33:13;0.20;;;0.20;;
46897;SDS011;32646;50.958;6.258;2022-12-18T11:35:52;0.20;;;0.20;;
46897;SDS011;32646;50.958;6.258;2022-12-18T11:41:00;0.20;;;0.20;;
46897;SDS011;32646;50.958;6.258;2022-12-18T11:46:23;0.20;;;0.20;;
46897;SDS011;32646;50.958;6.258;2022-12-18T11:48:58;0.20;;;0.20;;
46897;SDS011;32646;50.958;6.258;2022-12-18T11:51:38;0.20;;;0.20;;
46897;SDS011;32646;50.958;6.258;2022-12-18T11:54:13;0.20;;;0.20;;
46897;SDS011;32646;50.958;6.258;2022-12-18T11:56:44;0.20;;;0.20;;
46897;SDS011;32646;50.958;6.258;2022-12-18T11:59:41;0.20;;;0.20;;
46897;SDS011;32646;50.958;6.258;2022-12-18T12:08:26;0.20;;;0.20;;
46897;SDS011;32646;50.958;6.258;2022-12-18T12:11:06;0.20;;;0.20;;
46897;SDS011;32646;50.958;6.258;2022-12-18T12:16:57;0.20;;;0.20;;
46897;SDS011;32646;50.958;6.258;2022-12-18T12:22:17;0.20;;;0.20;;
46897;SDS011;32646;50.958;6.258;2022-12-18T12:25:15;0.20;;;0.20;;
46897;SDS011;32646;50.958;6.258;2022-12-18T12:28:05;0.20;;;0.20;;
46897;SDS011;32646;50.958;6.258;2022-12-18T12:36:08;0.20;;;0.20;;
46897;SDS011;32646;50.958;6.258;2022-12-18T12:38:52;0.20;;;0.20;;
46897;SDS011;32646;50.958;6.258;2022-12-18T12:41:24;0.20;;;0.20;;
46897;SDS011;32646;50.958;6.258;2022-12-18T12:43:54;0.20;;;0.20;;
46897;SDS011;32646;50.958;6.258;2022-12-18T12:46:24;0.20;;;0.20;;
46897;SDS011;32646;50.958;6.258;2022-12-18T12:48:53;0.20;;;0.20;;
46897;SDS011;32646;50.958;6.258;2022-12-18T12:51:25;0.20;;;0.20;;
46897;SDS011;32646;50.958;6.258;2022-12-18T12:53:54;0.20;;;0.20;;
46897;SDS011;32646;50.958;6.258;2022-12-18T12:56:24;0.20;;;0.20;;
46897;SDS011;32646;50.958;6.258;2022-12-18T12:59:01;0.20;;;0.20;;
46897;SDS011;32646;50.958;6.258;2022-12-18T13:01:53;0.20;;;0.20;;
46897;SDS011;32646;50.958;6.258;2022-12-18T13:04:32;0.20;;;0.20;;
46897;SDS011;32646;50.958;6.258;2022-12-18T13:07:03;0.20;;;0.20;;
46897;SDS011;32646;50.958;6.258;2022-12-18T13:18:20;0.20;;;0.20;;
46897;SDS011;32646;50.958;6.258;2022-12-18T13:25:56;0.20;;;0.20;;
46897;SDS011;32646;50.958;6.258;2022-12-18T13:31:02;0.20;;;0.20;;
46897;SDS011;32646;50.958;6.258;2022-12-18T13:39:11;0.20;;;0.20;;
46897;SDS011;32646;50.958;6.258;2022-12-18T13:44:35;0.20;;;0.20;;
46897;SDS011;32646;50.958;6.258;2022-12-18T13:47:26;0.20;;;0.20;;
46897;SDS011;32646;50.958;6.258;2022-12-18T13:50:02;0.20;;;0.20;;
46897;SDS011;32646;50.958;6.258;2022-12-18T13:52:46;0.22;;;0.22;;
46897;SDS011;32646;50.958;6.258;2022-12-18T13:55:16;0.20;;;0.20;;
46897;SDS011;32646;50.958;6.258;2022-12-18T13:57:46;0.20;;;0.20;;
46897;SDS011;32646;50.958;6.258;2022-12-18T14:02:49;0.20;;;0.20;;
46897;SDS011;32646;50.958;6.258;2022-12-18T14:05:29;0.20;;;0.20;;
46897;SDS011;32646;50.958;6.258;2022-12-18T14:08:01;0.20;;;0.20;;
46897;SDS011;32646;50.958;6.258;2022-12-18T14:10:30;0.20;;;0.20;;
46897;SDS011;32646;50.958;6.258;2022-12-18T14:13:17;0.20;;;0.20;;
46897;SDS011;32646;50.958;6.258;2022-12-18T14:16:06;0.20;;;0.20;;
46897;SDS011;32646;50.958;6.258;2022-12-18T14:18:36;0.20;;;0.20;;
46897;SDS011;32646;50.958;6.258;2022-12-18T14:21:29;0.20;;;0.20;;
46897;SDS011;32646;50.958;6.258;2022-12-18T14:24:11;0.20;;;0.20;;
46897;SDS011;32646;50.958;6.258;2022-12-18T14:26:42;0.20;;;0.20;;
46897;SDS011;32646;50.958;6.258;2022-12-18T14:29:19;0.20;;;0.20;;
46897;SDS011;32646;50.958;6.258;2022-12-18T14:31:50;0.20;;;0.20;;
46897;SDS011;32646;50.958;6.258;2022-12-18T14:37:15;0.20;;;0.20;;
46897;SDS011;32646;50.958;6.258;2022-12-18T14:39:59;0.20;;;0.20;;
46897;SDS011;32646;50.958;6.258;2022-12-18T14:42:35;0.20;;;0.20;;
46897;SDS011;32646;50.958;6.258;2022-12-18T14:48:08;0.25;;;0.25;;
46897;SDS011;32646;50.958;6.258;2022-12-18T14:50:59;0.20;;;0.20;;
46897;SDS011;32646;50.958;6.258;2022-12-18T14:53:41;0.20;;;0.20;;
46897;SDS011;32646;50.958;6.258;2022-12-18T14:58:48;0.20;;;0.20;;
46897;SDS011;32646;50.958;6.258;2022-12-18T15:01:21;0.20;;;0.20;;
46897;SDS011;32646;50.958;6.258;2022-12-18T15:04:27;0.20;;;0.20;;
46897;SDS011;32646;50.958;6.258;2022-12-18T15:07:09;0.20;;;0.20;;
46897;SDS011;32646;50.958;6.258;2022-12-18T15:10:09;0.20;;;0.20;;
46897;SDS011;32646;50.958;6.258;2022-12-18T15:12:42;0.20;;;0.20;;
46897;SDS011;32646;50.958;6.258;2022-12-18T15:17:59;0.20;;;0.20;;
46897;SDS011;32646;50.958;6.258;2022-12-18T15:20:26;0.20;;;0.20;;
46897;SDS011;32646;50.958;6.258;2022-12-18T15:22:53;0.20;;;0.20;;
46897;SDS011;32646;50.958;6.258;2022-12-18T15:25:41;0.20;;;0.20;;
46897;SDS011;32646;50.958;6.258;2022-12-18T15:28:15;0.20;;;0.20;;
46897;SDS011;32646;50.958;6.258;2022-12-18T15:31:33;0.20;;;0.20;;
46897;SDS011;32646;50.958;6.258;2022-12-18T15:33:44;0.20;;;0.20;;
46897;SDS011;32646;50.958;6.258;2022-12-18T15:36:25;0.20;;;0.20;;
46897;SDS011;32646;50.958;6.258;2022-12-18T15:38:53;0.20;;;0.20;;
46897;SDS011;32646;50.958;6.258;2022-12-18T15:41:33;0.20;;;0.20;;
46897;SDS011;32646;50.958;6.258;2022-12-18T15:44:02;0.25;;;0.25;;
46897;SDS011;32646;50.958;6.258;2022-12-18T15:46:29;0.20;;;0.20;;
46897;SDS011;32646;50.958;6.258;2022-12-18T15:48:56;0.20;;;0.20;;
46897;SDS011;32646;50.958;6.258;2022-12-18T15:53:58;0.20;;;0.20;;
46897;SDS011;32646;50.958;6.258;2022-12-18T15:56:26;0.20;;;0.20;;
46897;SDS011;32646;50.958;6.258;2022-12-18T15:58:53;0.20;;;0.20;;
46897;SDS011;32646;50.958;6.258;2022-12-18T16:01:20;0.30;;;0.30;;
46897;SDS011;32646;50.958;6.258;2022-12-18T16:03:49;0.20;;;0.20;;
46897;SDS011;32646;50.958;6.258;2022-12-18T16:06:16;0.20;;;0.20;;
46897;SDS011;32646;50.958;6.258;2022-12-18T16:08:42;0.25;;;0.25;;
46897;SDS011;32646;50.958;6.258;2022-12-18T16:11:23;0.20;;;0.20;;
46897;SDS011;32646;50.958;6.258;2022-12-18T16:13:51;0.20;;;0.20;;
46897;SDS011;32646;50.958;6.258;2022-12-18T16:16:18;0.20;;;0.20;;
46897;SDS011;32646;50.958;6.258;2022-12-18T16:18:45;0.20;;;0.20;;
46897;SDS011;32646;50.958;6.258;2022-12-18T16:21:11;0.20;;;0.20;;
46897;SDS011;32646;50.958;6.258;2022-12-18T16:23:38;0.20;;;0.20;;
46897;SDS011;32646;50.958;6.258;2022-12-18T16:26:05;0.20;;;0.20;;
46897;SDS011;32646;50.958;6.258;2022-12-18T16:28:32;0.20;;;0.20;;
46897;SDS011;32646;50.958;6.258;2022-12-18T16:30:58;0.20;;;0.20;;
46897;SDS011;32646;50.958;6.258;2022-12-18T16:33:25;0.28;;;0.28;;
46897;SDS011;32646;50.958;6.258;2022-12-18T16:35:52;0.20;;;0.20;;
46897;SDS011;32646;50.958;6.258;2022-12-18T16:38:19;0.20;;;0.20;;
46897;SDS011;32646;50.958;6.258;2022-12-18T16:40:46;0.20;;;0.20;;
46897;SDS011;32646;50.958;6.258;2022-12-18T16:43:12;0.20;;;0.20;;
46897;SDS011;32646;50.958;6.258;2022-12-18T16:45:39;0.20;;;0.20;;
46897;SDS011;32646;50.958;6.258;2022-12-18T16:48:08;0.20;;;0.20;;
46897;SDS011;32646;50.958;6.258;2022-12-18T16:50:34;0.20;;;0.20;;
46897;SDS011;32646;50.958;6.258;2022-12-18T16:53:01;0.20;;;0.20;;
46897;SDS011;32646;50.958;6.258;2022-12-18T16:55:27;0.28;;;0.28;;
46897;SDS011;32646;50.958;6.258;2022-12-18T16:57:54;0.25;;;0.25;;
46897;SDS011;32646;50.958;6.258;2022-12-18T17:00:21;0.30;;;0.30;;
46897;SDS011;32646;50.958;6.258;2022-12-18T17:02:47;0.20;;;0.20;;
46897;SDS011;32646;50.958;6.258;2022-12-18T17:05:14;0.20;;;0.20;;
46897;SDS011;32646;50.958;6.258;2022-12-18T17:07:40;0.20;;;0.20;;
46897;SDS011;32646;50.958;6.258;2022-12-18T17:10:07;0.28;;;0.28;;
46897;SDS011;32646;50.958;6.258;2022-12-18T17:12:35;0.20;;;0.20;;
46897;SDS011;32646;50.958;6.258;2022-12-18T17:15:01;0.20;;;0.20;;
46897;SDS011;32646;50.958;6.258;2022-12-18T17:17:28;0.20;;;0.20;;
46897;SDS011;32646;50.958;6.258;2022-12-18T17:19:55;0.30;;;0.30;;